createdAt,value
2019-03-31T00:00:48.405Z,5.87
2019-03-31T00:01:48.398Z,5.81
2019-03-31T00:02:48.399Z,5.79
2019-03-31T00:03:48.376Z,5.95
2019-03-31T00:04:48.365Z,5.84
2019-03-31T00:05:48.366Z,5.88
2019-03-31T00:06:48.341Z,5.84
2019-03-31T00:07:48.347Z,5.90
2019-03-31T00:08:48.317Z,5.92
2019-03-31T00:09:48.311Z,5.94
2019-03-31T00:10:48.300Z,5.98
2019-03-31T00:11:48.289Z,5.99
2019-03-31T00:12:48.290Z,5.94
2019-03-31T00:13:48.268Z,5.88
2019-03-31T00:14:48.254Z,5.87
2019-03-31T00:15:48.246Z,5.84
2019-03-31T00:16:48.234Z,5.81
2019-03-31T00:17:48.239Z,5.67
2019-03-31T00:18:48.205Z,5.65
2019-03-31T00:19:48.199Z,5.64
2019-03-31T00:20:48.186Z,5.70
2019-03-31T00:21:48.182Z,5.61
2019-03-31T00:22:48.180Z,5.61
2019-03-31T00:23:48.156Z,5.55
2019-03-31T00:24:48.140Z,5.49
2019-03-31T00:25:48.136Z,5.47
2019-03-31T00:26:48.118Z,5.51
2019-03-31T00:27:48.126Z,5.44
2019-03-31T00:28:48.095Z,5.47
2019-03-31T00:29:48.093Z,5.38
2019-03-31T00:30:48.074Z,5.49
2019-03-31T00:31:48.067Z,5.47
2019-03-31T00:32:48.070Z,5.41
2019-03-31T00:33:48.048Z,5.46
2019-03-31T00:34:48.028Z,5.38
2019-03-31T00:35:48.022Z,5.41
2019-03-31T00:36:48.006Z,5.38
2019-03-31T00:37:48.017Z,5.38
2019-03-31T00:38:47.986Z,5.36
2019-03-31T00:39:47.982Z,5.37
2019-03-31T00:40:47.962Z,5.28
2019-03-31T00:41:47.961Z,5.36
2019-03-31T00:42:47.954Z,5.41
2019-03-31T00:43:47.937Z,5.40
2019-03-31T00:44:47.920Z,5.29
2019-03-31T00:45:47.919Z,5.26
2019-03-31T00:46:47.897Z,5.28
2019-03-31T00:47:47.904Z,5.33
2019-03-31T00:48:47.878Z,5.26
2019-03-31T00:49:47.868Z,5.28
2019-03-31T00:50:47.853Z,5.22
2019-03-31T00:51:47.853Z,5.23
2019-03-31T00:52:47.844Z,5.20
2019-03-31T00:53:47.827Z,5.12
2019-03-31T00:54:47.811Z,5.08
2019-03-31T00:55:47.802Z,5.19
2019-03-31T00:56:47.795Z,5.15
2019-03-31T00:57:47.796Z,5.05
2019-03-31T00:58:47.766Z,5.18
2019-03-31T00:59:47.762Z,5.12
2019-03-31T01:00:47.748Z,5.13
2019-03-31T01:01:47.738Z,5.08
2019-03-31T01:02:47.739Z,5.01
2019-03-31T01:03:47.719Z,5.00
2019-03-31T01:04:47.699Z,5.01
2019-03-31T01:05:47.706Z,4.98
2019-03-31T01:06:47.678Z,5.02
2019-03-31T01:07:47.685Z,4.98
2019-03-31T01:08:47.656Z,4.98
2019-03-31T01:09:47.649Z,5.05
2019-03-31T01:10:47.633Z,5.07
2019-03-31T01:11:47.628Z,5.05
2019-03-31T01:12:47.626Z,5.07
2019-03-31T01:13:47.611Z,5.04
2019-03-31T01:14:47.590Z,4.95
2019-03-31T01:15:47.581Z,5.02
2019-03-31T01:16:47.566Z,4.95
2019-03-31T01:17:47.574Z,4.94
2019-03-31T01:18:47.545Z,4.92
2019-03-31T01:19:47.540Z,4.87
2019-03-31T01:20:47.527Z,4.83
2019-03-31T01:21:47.516Z,4.95
2019-03-31T01:22:47.517Z,4.90
2019-03-31T01:23:47.498Z,4.76
2019-03-31T01:24:47.480Z,4.86
2019-03-31T01:25:47.477Z,4.82
2019-03-31T01:26:47.460Z,4.74
2019-03-31T01:27:47.466Z,4.79
2019-03-31T01:28:47.438Z,4.70
2019-03-31T01:29:47.430Z,4.70
2019-03-31T01:30:47.418Z,4.67
2019-03-31T01:31:50.459Z,4.67
2019-03-31T01:32:47.406Z,4.64
2019-03-31T01:33:47.387Z,4.68
2019-03-31T01:34:47.370Z,4.75
2019-03-31T01:35:47.363Z,4.86
2019-03-31T01:36:47.351Z,4.74
2019-03-31T01:37:47.383Z,4.74
2019-03-31T01:38:47.333Z,4.79
2019-03-31T01:39:47.320Z,4.68
2019-03-31T01:40:47.305Z,4.74
2019-03-31T01:41:47.300Z,4.64
2019-03-31T01:42:47.294Z,4.70
2019-03-31T01:43:47.295Z,4.67
2019-03-31T01:44:47.263Z,4.67
2019-03-31T01:45:47.257Z,4.60
2019-03-31T01:46:47.245Z,4.60
2019-03-31T01:47:47.236Z,4.58
2019-03-31T01:48:47.234Z,4.74
2019-03-31T01:49:47.211Z,4.84
2019-03-31T01:50:47.195Z,4.74
2019-03-31T01:51:47.189Z,4.70
2019-03-31T01:52:47.177Z,4.71
2019-03-31T01:53:47.183Z,4.67
2019-03-31T01:54:47.151Z,4.67
2019-03-31T01:55:47.144Z,4.66
2019-03-31T01:56:47.130Z,4.57
2019-03-31T01:57:47.122Z,4.58
2019-03-31T01:58:47.121Z,4.57
2019-03-31T01:59:47.106Z,4.50
2019-03-31T02:00:47.086Z,4.60
2019-03-31T02:01:47.079Z,4.64
2019-03-31T02:02:47.063Z,4.53
2019-03-31T02:03:47.076Z,4.57
2019-03-31T02:04:47.041Z,4.58
2019-03-31T02:05:47.037Z,4.46
2019-03-31T02:06:47.021Z,4.43
2019-03-31T02:07:47.015Z,4.43
2019-03-31T02:08:47.012Z,4.34
2019-03-31T02:09:46.992Z,4.36
2019-03-31T02:10:46.976Z,4.38
2019-03-31T02:11:46.985Z,4.34
2019-03-31T02:12:46.953Z,4.48
2019-03-31T02:13:46.961Z,4.49
2019-03-31T02:14:46.931Z,4.53
2019-03-31T02:15:46.931Z,4.60
2019-03-31T02:16:46.912Z,4.87
2019-03-31T02:17:46.910Z,4.92
2019-03-31T02:18:46.902Z,4.95
2019-03-31T02:19:46.885Z,5.00
2019-03-31T02:20:46.868Z,5.05
2019-03-31T02:21:46.860Z,5.12
2019-03-31T02:22:46.847Z,5.26
2019-03-31T02:23:46.852Z,5.26
2019-03-31T02:24:46.826Z,5.23
2019-03-31T02:25:46.816Z,5.34
2019-03-31T02:26:46.800Z,5.41
2019-03-31T02:27:46.795Z,5.52
2019-03-31T02:28:46.783Z,5.70
2019-03-31T02:29:46.790Z,5.72
2019-03-31T02:30:46.763Z,5.90
2019-03-31T02:31:46.751Z,5.80
2019-03-31T02:32:46.736Z,5.83
2019-03-31T02:33:46.728Z,5.84
2019-03-31T02:34:46.730Z,5.84
2019-03-31T02:35:46.708Z,5.94
2019-03-31T02:36:46.694Z,5.91
2019-03-31T02:37:46.686Z,5.97
2019-03-31T02:38:46.674Z,5.97
2019-03-31T02:39:46.682Z,6.05
2019-03-31T02:40:46.647Z,5.97
2019-03-31T02:41:46.642Z,6.09
2019-03-31T02:42:46.625Z,6.13
2019-03-31T02:43:46.621Z,5.99
2019-03-31T02:44:46.621Z,6.16
2019-03-31T02:45:46.599Z,6.13
2019-03-31T02:46:46.581Z,6.13
2019-03-31T02:47:46.575Z,6.16
2019-03-31T02:48:46.560Z,6.19
2019-03-31T02:49:46.566Z,6.19
2019-03-31T02:50:46.537Z,6.22
2019-03-31T02:51:46.531Z,6.20
2019-03-31T02:52:46.515Z,6.22
2019-03-31T02:53:46.508Z,6.25
2019-03-31T02:54:46.507Z,6.31
2019-03-31T02:55:46.488Z,6.22
2019-03-31T02:56:46.470Z,6.25
2019-03-31T02:57:46.482Z,6.34
2019-03-31T02:58:46.448Z,6.28
2019-03-31T02:59:46.458Z,6.22
2019-03-31T03:00:46.426Z,6.32
2019-03-31T03:01:46.431Z,6.31
2019-03-31T03:02:46.416Z,6.32
2019-03-31T03:03:46.405Z,6.29
2019-03-31T03:04:46.398Z,6.46
2019-03-31T03:05:46.385Z,6.34
2019-03-31T03:06:46.360Z,6.43
2019-03-31T03:07:46.355Z,6.41
2019-03-31T03:08:46.347Z,6.35
2019-03-31T03:09:46.345Z,6.39
2019-03-31T03:10:46.317Z,6.39
2019-03-31T03:11:46.311Z,6.38
2019-03-31T03:12:46.301Z,6.46
2019-03-31T03:13:46.295Z,6.38
2019-03-31T03:14:46.289Z,6.43
2019-03-31T03:15:46.274Z,6.46
2019-03-31T03:16:46.253Z,6.47
2019-03-31T03:17:46.245Z,6.46
2019-03-31T03:18:46.230Z,6.52
2019-03-31T03:19:46.237Z,6.50
2019-03-31T03:20:46.215Z,6.56
2019-03-31T03:21:46.202Z,6.53
2019-03-31T03:22:46.187Z,6.50
2019-03-31T03:23:46.179Z,6.49
2019-03-31T03:24:46.184Z,6.50
2019-03-31T03:25:55.666Z,6.57
2019-03-31T03:26:47.140Z,6.59
2019-03-31T03:27:46.137Z,6.59
2019-03-31T03:28:46.120Z,6.67
2019-03-31T03:29:46.130Z,6.62
2019-03-31T03:30:46.234Z,6.62
2019-03-31T03:31:46.109Z,6.67
2019-03-31T03:33:12.393Z,6.68
2019-03-31T03:33:47.066Z,6.68
2019-03-31T03:34:46.066Z,6.65
2019-03-31T03:35:46.098Z,6.64
2019-03-31T03:36:46.043Z,6.67
2019-03-31T03:37:46.026Z,6.60
2019-03-31T03:38:46.014Z,6.68
2019-03-31T03:39:46.019Z,6.71
2019-03-31T03:40:45.988Z,6.71
2019-03-31T03:41:45.992Z,6.72
2019-03-31T03:42:46.019Z,6.74
2019-03-31T03:43:55.343Z,6.78
2019-03-31T03:44:46.975Z,6.74
2019-03-31T03:45:45.944Z,6.71
2019-03-31T03:46:45.923Z,6.75
2019-03-31T03:47:45.942Z,6.82
2019-03-31T03:48:46.264Z,6.87
2019-03-31T03:49:45.923Z,6.72
2019-03-31T03:50:45.895Z,6.74
2019-03-31T03:51:45.886Z,6.72
2019-03-31T03:52:45.858Z,6.78
2019-03-31T03:53:45.851Z,6.80
2019-03-31T03:54:45.833Z,6.87
2019-03-31T03:55:45.843Z,6.78
2019-03-31T03:56:45.817Z,6.87
2019-03-31T03:57:45.809Z,6.78
2019-03-31T03:58:45.791Z,6.75
2019-03-31T03:59:45.787Z,6.71
2019-03-31T04:00:45.783Z,6.71
2019-03-31T04:01:45.764Z,6.71
2019-03-31T04:02:45.747Z,6.68
2019-03-31T04:03:45.744Z,6.71
2019-03-31T04:04:45.726Z,6.67
2019-03-31T04:05:45.732Z,6.65
2019-03-31T04:06:45.712Z,6.71
2019-03-31T04:07:45.701Z,6.65
2019-03-31T04:08:45.686Z,6.64
2019-03-31T04:09:45.678Z,6.47
2019-03-31T04:10:45.690Z,6.50
2019-03-31T04:11:45.658Z,6.44
2019-03-31T04:12:45.653Z,6.43
2019-03-31T04:13:45.646Z,6.29
2019-03-31T04:14:45.616Z,6.19
2019-03-31T04:15:45.625Z,6.19
2019-03-31T04:16:45.684Z,6.06
2019-03-31T04:17:45.591Z,6.05
2019-03-31T04:18:45.574Z,5.99
2019-03-31T04:19:45.566Z,6.05
2019-03-31T04:20:45.566Z,5.81
2019-03-31T04:21:45.550Z,5.91
2019-03-31T04:22:45.530Z,5.74
2019-03-31T04:23:45.543Z,5.62
2019-03-31T04:24:45.512Z,5.61
2019-03-31T04:25:45.524Z,5.52
2019-03-31T04:26:45.486Z,5.41
2019-03-31T04:27:45.481Z,5.36
2019-03-31T04:28:45.462Z,5.34
2019-03-31T04:29:45.463Z,5.25
2019-03-31T04:30:45.464Z,5.18
2019-03-31T04:31:45.433Z,5.29
2019-03-31T04:32:45.418Z,5.08
2019-03-31T04:33:51.658Z,5.02
2019-03-31T04:34:46.396Z,5.02
2019-03-31T04:35:45.406Z,5.00
2019-03-31T04:36:45.377Z,5.05
2019-03-31T04:37:45.369Z,4.95
2019-03-31T04:38:45.354Z,4.97
2019-03-31T04:39:45.346Z,5.00
2019-03-31T04:40:45.349Z,4.90
2019-03-31T04:41:45.332Z,4.87
2019-03-31T04:42:45.311Z,4.87
2019-03-31T04:43:45.302Z,4.71
2019-03-31T04:44:45.286Z,4.71
2019-03-31T04:45:45.295Z,4.66
2019-03-31T04:46:45.270Z,4.52
2019-03-31T04:47:45.258Z,4.53
2019-03-31T04:48:45.243Z,4.48
2019-03-31T04:49:45.244Z,4.52
2019-03-31T04:50:45.234Z,4.42
2019-03-31T04:51:45.214Z,4.48
2019-03-31T04:52:45.206Z,4.46
2019-03-31T04:53:45.191Z,4.60
2019-03-31T04:54:45.176Z,4.66
2019-03-31T04:55:45.184Z,4.84
2019-03-31T04:56:45.159Z,4.78
2019-03-31T04:57:45.149Z,4.86
2019-03-31T04:58:45.141Z,5.07
2019-03-31T04:59:45.126Z,5.04
2019-03-31T05:00:45.122Z,5.13
2019-03-31T05:01:45.111Z,5.20
2019-03-31T05:02:45.088Z,5.23
2019-03-31T05:03:45.094Z,5.20
2019-03-31T05:04:45.066Z,5.28
2019-03-31T05:05:45.075Z,5.18
2019-03-31T05:06:45.047Z,5.25
2019-03-31T05:07:45.037Z,5.16
2019-03-31T05:08:45.022Z,5.13
2019-03-31T05:09:45.015Z,5.08
2019-03-31T05:10:45.016Z,5.07
2019-03-31T05:11:44.992Z,5.05
2019-03-31T05:12:44.981Z,4.98
2019-03-31T05:13:44.972Z,5.00
2019-03-31T05:14:44.956Z,5.02
2019-03-31T05:15:44.998Z,4.98
2019-03-31T05:16:44.932Z,4.89
2019-03-31T05:17:44.929Z,4.92
2019-03-31T05:18:44.910Z,4.94
2019-03-31T05:19:44.905Z,4.83
2019-03-31T05:20:44.894Z,4.79
2019-03-31T05:21:44.904Z,4.75
2019-03-31T05:22:44.867Z,4.74
2019-03-31T05:23:44.861Z,4.75
2019-03-31T05:24:44.847Z,4.82
2019-03-31T05:25:44.839Z,4.75
2019-03-31T05:26:44.839Z,4.71
2019-03-31T05:27:44.815Z,4.76
2019-03-31T05:28:44.800Z,4.86
2019-03-31T05:29:44.794Z,4.87
2019-03-31T05:30:44.778Z,4.90
2019-03-31T05:31:44.786Z,5.05
2019-03-31T05:32:44.772Z,5.04
2019-03-31T05:33:44.751Z,5.10
2019-03-31T05:34:44.734Z,5.20
2019-03-31T05:35:44.731Z,5.18
2019-03-31T05:36:44.735Z,5.29
2019-03-31T05:37:51.120Z,5.31
2019-03-31T05:38:45.698Z,5.33
2019-03-31T05:39:44.683Z,5.33
2019-03-31T05:40:44.669Z,5.47
2019-03-31T05:41:44.680Z,5.44
2019-03-31T05:42:44.647Z,5.59
2019-03-31T05:43:44.646Z,5.54
2019-03-31T05:44:44.631Z,5.56
2019-03-31T05:45:44.619Z,5.65
2019-03-31T05:46:44.616Z,5.67
2019-03-31T05:47:44.598Z,5.80
2019-03-31T05:48:44.580Z,5.77
2019-03-31T05:49:44.579Z,5.81
2019-03-31T05:50:44.559Z,5.87
2019-03-31T05:51:44.567Z,5.80
2019-03-31T05:52:44.542Z,5.98
2019-03-31T05:53:44.533Z,5.95
2019-03-31T05:54:44.519Z,6.01
2019-03-31T05:55:44.517Z,6.07
2019-03-31T05:56:44.516Z,6.13
2019-03-31T05:57:44.487Z,6.19
2019-03-31T05:58:44.511Z,6.25
2019-03-31T05:59:44.466Z,6.29
2019-03-31T06:00:44.449Z,6.46
2019-03-31T06:01:44.456Z,6.49
2019-03-31T06:02:44.426Z,6.64
2019-03-31T06:03:44.424Z,6.67
2019-03-31T06:04:44.404Z,6.70
2019-03-31T06:05:44.399Z,6.75
2019-03-31T06:06:44.397Z,6.87
2019-03-31T06:07:44.381Z,6.72
2019-03-31T06:08:44.362Z,6.85
2019-03-31T06:09:44.354Z,6.90
2019-03-31T06:10:44.338Z,6.90
2019-03-31T06:11:44.353Z,6.90
2019-03-31T06:12:44.319Z,6.96
2019-03-31T06:13:44.317Z,7.07
2019-03-31T06:14:44.296Z,7.08
2019-03-31T06:15:44.289Z,7.14
2019-03-31T06:16:44.288Z,7.18
2019-03-31T06:17:44.266Z,7.11
2019-03-31T06:18:44.253Z,7.25
2019-03-31T06:19:44.244Z,7.31
2019-03-31T06:20:44.229Z,7.28
2019-03-31T06:21:44.238Z,7.39
2019-03-31T06:22:44.212Z,7.40
2019-03-31T06:23:44.204Z,7.40
2019-03-31T06:24:44.188Z,7.43
2019-03-31T06:25:44.182Z,7.40
2019-03-31T06:26:44.176Z,7.37
2019-03-31T06:27:44.157Z,7.51
2019-03-31T06:28:44.141Z,7.48
2019-03-31T06:29:44.137Z,7.58
2019-03-31T06:30:44.117Z,7.53
2019-03-31T06:31:44.130Z,7.61
2019-03-31T06:32:44.095Z,7.69
2019-03-31T06:33:44.089Z,7.75
2019-03-31T06:34:47.615Z,7.87
2019-03-31T06:35:44.067Z,7.84
2019-03-31T06:36:44.069Z,7.95
2019-03-31T06:37:44.044Z,7.98
2019-03-31T06:38:44.030Z,7.91
2019-03-31T06:39:44.023Z,8.01
2019-03-31T06:40:44.005Z,8.06
2019-03-31T06:41:44.013Z,8.21
2019-03-31T06:42:43.984Z,8.09
2019-03-31T06:43:43.977Z,8.20
2019-03-31T06:44:43.961Z,8.26
2019-03-31T06:45:43.954Z,8.35
2019-03-31T06:46:43.952Z,8.41
2019-03-31T06:47:43.936Z,8.42
2019-03-31T06:48:43.917Z,8.52
2019-03-31T06:49:43.912Z,8.61
2019-03-31T06:50:43.897Z,8.61
2019-03-31T06:51:43.915Z,8.53
2019-03-31T06:52:43.873Z,8.56
2019-03-31T06:53:43.871Z,8.52
2019-03-31T06:54:43.854Z,8.52
2019-03-31T06:55:43.845Z,8.38
2019-03-31T06:56:46.960Z,8.44
2019-03-31T06:57:43.824Z,8.36
2019-03-31T06:58:43.830Z,8.54
2019-03-31T06:59:43.802Z,8.49
2019-03-31T07:00:43.787Z,8.49
2019-03-31T07:01:43.781Z,8.45
2019-03-31T07:02:43.786Z,8.35
2019-03-31T07:03:43.759Z,8.39
2019-03-31T07:04:43.747Z,8.36
2019-03-31T07:05:43.744Z,8.24
2019-03-31T07:06:43.722Z,8.18
2019-03-31T07:07:43.729Z,8.24
2019-03-31T07:08:43.707Z,8.32
2019-03-31T07:09:43.694Z,8.38
2019-03-31T07:10:43.684Z,8.35
2019-03-31T07:11:43.670Z,8.35
2019-03-31T07:12:43.670Z,8.41
2019-03-31T07:13:43.649Z,8.57
2019-03-31T07:14:43.633Z,8.66
2019-03-31T07:15:43.636Z,8.60
2019-03-31T07:16:43.612Z,8.54
2019-03-31T07:17:43.618Z,8.63
2019-03-31T07:18:43.587Z,8.61
2019-03-31T07:19:43.582Z,8.53
2019-03-31T07:20:43.567Z,8.66
2019-03-31T07:21:43.559Z,8.78
2019-03-31T07:22:43.573Z,8.97
2019-03-31T07:23:43.539Z,9.15
2019-03-31T07:24:43.523Z,9.80
2019-03-31T07:25:43.517Z,10.10
2019-03-31T07:26:43.502Z,10.58
2019-03-31T07:27:43.508Z,10.95
2019-03-31T07:28:43.478Z,11.10
2019-03-31T07:29:43.473Z,10.87
2019-03-31T07:30:43.456Z,10.55
2019-03-31T07:31:43.448Z,10.90
2019-03-31T07:32:43.447Z,10.98
2019-03-31T07:33:43.430Z,10.59
2019-03-31T07:34:43.412Z,10.15
2019-03-31T07:35:43.404Z,10.69
2019-03-31T07:36:43.388Z,11.41
2019-03-31T07:37:47.505Z,11.67
2019-03-31T07:38:43.443Z,11.53
2019-03-31T07:39:45.932Z,11.48
2019-03-31T07:40:43.386Z,11.34
2019-03-31T07:41:43.595Z,11.49
2019-03-31T07:42:43.336Z,11.15
2019-03-31T07:43:43.317Z,11.27
2019-03-31T07:44:43.307Z,11.52
2019-03-31T07:45:43.293Z,11.41
2019-03-31T07:46:43.278Z,11.05
2019-03-31T07:47:43.284Z,10.90
2019-03-31T07:48:43.260Z,10.28
2019-03-31T07:49:43.250Z,9.80
2019-03-31T07:50:43.238Z,9.70
2019-03-31T07:51:43.226Z,9.76
2019-03-31T07:52:43.224Z,9.76
2019-03-31T07:53:43.204Z,9.63
2019-03-31T07:54:43.188Z,9.72
2019-03-31T07:55:43.186Z,9.67
2019-03-31T07:56:43.166Z,9.59
2019-03-31T07:57:43.192Z,9.51
2019-03-31T07:58:43.143Z,9.55
2019-03-31T07:59:43.155Z,9.56
2019-03-31T08:00:43.122Z,9.66
2019-03-31T08:01:43.128Z,9.52
2019-03-31T08:02:43.122Z,9.36
2019-03-31T08:03:43.094Z,9.47
2019-03-31T08:04:43.075Z,9.37
2019-03-31T08:05:43.073Z,9.54
2019-03-31T08:06:43.054Z,9.48
2019-03-31T08:07:43.063Z,9.19
2019-03-31T08:08:43.031Z,9.40
2019-03-31T08:09:43.028Z,9.48
2019-03-31T08:10:43.010Z,9.34
2019-03-31T08:11:43.004Z,9.44
2019-03-31T08:12:43.004Z,9.81
2019-03-31T08:13:42.987Z,9.92
2019-03-31T08:14:42.965Z,10.12
2019-03-31T08:15:42.960Z,10.57
2019-03-31T08:16:42.944Z,11.53
2019-03-31T08:17:43.001Z,12.37
2019-03-31T08:18:42.928Z,13.20
2019-03-31T08:19:42.914Z,13.43
2019-03-31T08:20:42.901Z,13.28
2019-03-31T08:21:42.897Z,13.39
2019-03-31T08:22:42.894Z,13.52
2019-03-31T08:23:42.870Z,13.62
2019-03-31T08:24:42.857Z,13.08
2019-03-31T08:25:42.850Z,13.24
2019-03-31T08:26:42.833Z,13.01
2019-03-31T08:27:42.841Z,13.31
2019-03-31T08:28:42.818Z,13.36
2019-03-31T08:29:42.809Z,12.99
2019-03-31T08:30:42.798Z,13.17
2019-03-31T08:31:42.782Z,13.36
2019-03-31T08:32:42.782Z,14.11
2019-03-31T08:33:42.761Z,14.36
2019-03-31T08:34:42.748Z,14.74
2019-03-31T08:35:47.652Z,13.80
2019-03-31T08:36:43.722Z,13.08
2019-03-31T08:37:42.729Z,13.12
2019-03-31T08:38:42.701Z,12.80
2019-03-31T08:39:42.695Z,12.72
2019-03-31T08:40:42.681Z,12.25
2019-03-31T08:41:42.670Z,12.50
2019-03-31T08:42:42.676Z,12.61
2019-03-31T08:43:42.649Z,12.63
2019-03-31T08:44:42.634Z,12.05
2019-03-31T08:45:42.631Z,11.58
2019-03-31T08:46:42.615Z,11.53
2019-03-31T08:47:42.623Z,11.49
2019-03-31T08:48:42.592Z,11.00
2019-03-31T08:49:42.587Z,10.89
2019-03-31T08:50:42.567Z,10.94
2019-03-31T08:51:42.562Z,10.77
2019-03-31T08:52:42.559Z,10.72
2019-03-31T08:53:42.542Z,10.72
2019-03-31T08:54:42.522Z,10.72
2019-03-31T08:55:42.538Z,10.71
2019-03-31T08:56:42.502Z,10.20
2019-03-31T08:57:42.514Z,10.28
2019-03-31T08:58:42.479Z,10.36
2019-03-31T08:59:42.471Z,10.53
2019-03-31T09:00:42.455Z,10.53
2019-03-31T09:01:42.450Z,10.61
2019-03-31T09:02:42.447Z,10.42
2019-03-31T09:03:42.426Z,10.46
2019-03-31T09:04:42.418Z,10.38
2019-03-31T09:05:42.405Z,10.55
2019-03-31T09:06:42.390Z,10.38
2019-03-31T09:07:42.397Z,10.43
2019-03-31T09:08:42.372Z,10.49
2019-03-31T09:09:42.362Z,10.68
2019-03-31T09:10:42.352Z,10.59
2019-03-31T09:11:42.337Z,10.55
2019-03-31T09:12:42.322Z,10.68
2019-03-31T09:13:42.332Z,10.86
2019-03-31T09:14:42.300Z,11.08
2019-03-31T09:15:42.301Z,11.20
2019-03-31T09:16:42.280Z,10.86
2019-03-31T09:17:42.271Z,10.79
2019-03-31T09:18:42.269Z,10.67
2019-03-31T09:19:42.267Z,10.55
2019-03-31T09:20:42.235Z,10.58
2019-03-31T09:21:42.227Z,10.62
2019-03-31T09:22:42.211Z,10.67
2019-03-31T09:23:42.218Z,10.62
2019-03-31T09:24:42.188Z,10.67
2019-03-31T09:25:42.185Z,10.82
2019-03-31T09:26:42.168Z,10.95
2019-03-31T09:27:42.168Z,10.86
2019-03-31T09:28:42.166Z,10.72
2019-03-31T09:29:42.138Z,10.49
2019-03-31T09:30:42.123Z,10.65
2019-03-31T09:31:42.116Z,10.62
2019-03-31T09:32:42.099Z,11.58
2019-03-31T09:33:42.112Z,11.65
2019-03-31T09:34:42.078Z,11.60
2019-03-31T09:35:42.070Z,11.33
2019-03-31T09:36:42.055Z,11.53
2019-03-31T09:37:42.051Z,12.30
2019-03-31T09:38:42.047Z,13.27
2019-03-31T09:39:42.027Z,14.04
2019-03-31T09:40:42.015Z,13.93
2019-03-31T09:41:42.003Z,13.73
2019-03-31T09:42:41.989Z,13.46
2019-03-31T09:43:41.997Z,13.60
2019-03-31T09:44:41.974Z,13.09
2019-03-31T09:45:41.960Z,12.66
2019-03-31T09:46:41.944Z,12.18
2019-03-31T09:47:41.938Z,11.83
2019-03-31T09:48:41.941Z,11.88
2019-03-31T09:49:41.920Z,11.70
2019-03-31T09:50:41.906Z,11.45
2019-03-31T09:51:41.897Z,11.01
2019-03-31T09:52:41.889Z,11.35
2019-03-31T09:53:41.886Z,12.69
2019-03-31T09:54:41.860Z,13.49
2019-03-31T09:55:41.852Z,13.57
2019-03-31T09:56:41.834Z,13.43
2019-03-31T09:57:41.831Z,13.26
2019-03-31T09:58:41.827Z,14.04
2019-03-31T09:59:41.806Z,14.61
2019-03-31T10:00:41.789Z,14.48
2019-03-31T10:01:41.786Z,14.87
2019-03-31T10:02:41.768Z,15.43
2019-03-31T10:03:41.774Z,15.30
2019-03-31T10:04:41.744Z,16.10
2019-03-31T10:05:41.744Z,16.49
2019-03-31T10:06:41.724Z,15.73
2019-03-31T10:07:41.721Z,15.26
2019-03-31T10:08:41.715Z,15.27
2019-03-31T10:09:41.694Z,15.02
2019-03-31T10:10:41.678Z,14.82
2019-03-31T10:11:41.670Z,14.66
2019-03-31T10:12:41.657Z,14.49
2019-03-31T10:13:41.668Z,14.26
2019-03-31T10:14:41.632Z,13.97
2019-03-31T10:15:41.625Z,13.50
2019-03-31T10:16:41.614Z,13.13
2019-03-31T10:17:41.604Z,13.09
2019-03-31T10:18:41.620Z,13.02
2019-03-31T10:19:41.581Z,12.80
2019-03-31T10:20:41.567Z,12.57
2019-03-31T10:21:41.561Z,12.57
2019-03-31T10:22:41.545Z,11.71
2019-03-31T10:23:41.536Z,11.60
2019-03-31T10:24:41.543Z,11.70
2019-03-31T10:25:41.516Z,11.85
2019-03-31T10:26:41.501Z,11.85
2019-03-31T10:27:41.492Z,11.71
2019-03-31T10:28:41.482Z,11.81
2019-03-31T10:29:41.484Z,12.15
2019-03-31T10:30:41.453Z,12.17
2019-03-31T10:31:41.447Z,12.03
2019-03-31T10:32:41.432Z,12.32
2019-03-31T10:33:41.426Z,12.36
2019-03-31T10:34:41.424Z,12.40
2019-03-31T10:35:41.403Z,12.53
2019-03-31T10:36:44.823Z,12.28
2019-03-31T10:37:41.381Z,12.29
2019-03-31T10:38:41.366Z,12.69
2019-03-31T10:39:41.372Z,12.72
2019-03-31T10:40:41.342Z,12.76
2019-03-31T10:41:41.341Z,12.54
2019-03-31T10:42:41.319Z,13.01
2019-03-31T10:43:41.312Z,14.18
2019-03-31T10:44:41.312Z,14.89
2019-03-31T10:45:41.293Z,15.23
2019-03-31T10:46:41.281Z,14.40
2019-03-31T10:47:41.272Z,14.12
2019-03-31T10:48:41.252Z,14.70
2019-03-31T10:49:41.263Z,15.43
2019-03-31T10:50:41.231Z,15.91
2019-03-31T10:51:41.221Z,17.02
2019-03-31T10:52:41.211Z,18.08
2019-03-31T10:53:41.202Z,18.24
2019-03-31T10:54:41.198Z,18.67
2019-03-31T10:55:41.178Z,18.88
2019-03-31T10:56:41.164Z,19.22
2019-03-31T10:57:41.156Z,18.96
2019-03-31T10:58:41.144Z,18.67
2019-03-31T10:59:41.545Z,18.81
2019-03-31T11:00:44.331Z,19.44
2019-03-31T11:01:41.110Z,18.79
2019-03-31T11:02:41.097Z,18.26
2019-03-31T11:03:41.093Z,17.39
2019-03-31T11:04:41.085Z,17.68
2019-03-31T11:05:41.077Z,17.05
2019-03-31T11:06:41.051Z,17.05
2019-03-31T11:07:41.050Z,16.57
2019-03-31T11:08:41.027Z,16.74
2019-03-31T11:09:41.036Z,16.57
2019-03-31T11:10:41.006Z,16.73
2019-03-31T11:11:40.999Z,16.09
2019-03-31T11:12:40.983Z,15.04
2019-03-31T11:13:40.979Z,13.98
2019-03-31T11:14:40.980Z,13.82
2019-03-31T11:15:40.958Z,14.33
2019-03-31T11:16:40.943Z,15.07
2019-03-31T11:17:40.932Z,15.07
2019-03-31T11:18:40.916Z,14.94
2019-03-31T11:19:40.925Z,14.85
2019-03-31T11:20:40.898Z,14.93
2019-03-31T11:21:40.897Z,14.94
2019-03-31T11:22:40.873Z,14.43
2019-03-31T11:23:40.865Z,14.49
2019-03-31T11:24:40.864Z,14.30
2019-03-31T11:25:40.842Z,13.80
2019-03-31T11:26:40.828Z,13.83
2019-03-31T11:27:43.736Z,13.94
2019-03-31T11:28:40.811Z,13.93
2019-03-31T11:29:40.816Z,14.38
2019-03-31T11:30:40.787Z,14.85
2019-03-31T11:31:40.776Z,14.66
2019-03-31T11:32:40.768Z,15.17
2019-03-31T11:33:40.753Z,15.22
2019-03-31T11:34:40.772Z,14.70
2019-03-31T11:35:40.731Z,14.78
2019-03-31T11:36:40.720Z,15.10
2019-03-31T11:37:40.711Z,15.75
2019-03-31T11:38:40.696Z,16.09
2019-03-31T11:39:40.687Z,17.30
2019-03-31T11:40:40.686Z,16.77
2019-03-31T11:41:40.668Z,15.14
2019-03-31T11:42:40.650Z,13.95
2019-03-31T11:43:40.655Z,13.79
2019-03-31T11:44:40.627Z,14.38
2019-03-31T11:45:40.640Z,15.92
2019-03-31T11:46:40.611Z,16.58
2019-03-31T11:47:40.604Z,17.05
2019-03-31T11:48:40.587Z,17.10
2019-03-31T11:49:40.577Z,17.98
2019-03-31T11:50:40.583Z,18.53
2019-03-31T11:51:40.555Z,19.17
2019-03-31T11:52:40.539Z,18.78
2019-03-31T11:53:40.533Z,18.94
2019-03-31T11:54:40.521Z,19.20
2019-03-31T11:55:40.529Z,18.73
2019-03-31T11:56:40.500Z,18.51
2019-03-31T11:57:40.488Z,17.75
2019-03-31T11:58:40.476Z,17.78
2019-03-31T11:59:40.473Z,17.57
2019-03-31T12:00:40.465Z,16.91
2019-03-31T12:01:40.456Z,17.22
2019-03-31T12:02:40.429Z,17.41
2019-03-31T12:03:40.427Z,17.73
2019-03-31T12:04:40.407Z,17.42
2019-03-31T12:05:40.418Z,17.38
2019-03-31T12:06:40.391Z,17.38
2019-03-31T12:07:47.124Z,17.09
2019-03-31T12:08:41.362Z,16.44
2019-03-31T12:09:40.357Z,16.26
2019-03-31T12:10:40.358Z,15.23
2019-03-31T12:11:40.336Z,14.66
2019-03-31T12:12:40.320Z,14.79
2019-03-31T12:13:40.316Z,13.82
2019-03-31T12:14:40.300Z,14.51
2019-03-31T12:15:40.305Z,15.12
2019-03-31T12:16:40.276Z,15.67
2019-03-31T12:17:40.284Z,16.13
2019-03-31T12:18:40.257Z,16.46
2019-03-31T12:19:40.249Z,15.88
2019-03-31T12:20:40.245Z,16.13
2019-03-31T12:21:40.224Z,15.70
2019-03-31T12:22:40.220Z,15.32
2019-03-31T12:23:40.204Z,15.47
2019-03-31T12:24:40.191Z,15.81
2019-03-31T12:25:40.197Z,16.06
2019-03-31T12:26:40.168Z,16.40
2019-03-31T12:27:40.155Z,16.68
2019-03-31T12:28:40.140Z,17.34
2019-03-31T12:29:40.142Z,18.34
2019-03-31T12:30:40.141Z,18.60
2019-03-31T12:31:40.115Z,18.64
2019-03-31T12:32:40.096Z,17.30
2019-03-31T12:33:40.090Z,17.13
2019-03-31T12:34:40.076Z,17.69
2019-03-31T12:35:40.082Z,17.10
2019-03-31T12:36:40.055Z,15.88
2019-03-31T12:37:42.570Z,15.36
2019-03-31T12:38:40.032Z,14.58
2019-03-31T12:39:40.031Z,13.82
2019-03-31T12:40:40.030Z,13.80
2019-03-31T12:41:40.005Z,13.65
2019-03-31T12:42:39.986Z,13.70
2019-03-31T12:43:39.986Z,13.55
2019-03-31T12:44:39.965Z,13.33
2019-03-31T12:45:42.912Z,13.01
2019-03-31T12:46:39.947Z,13.82
2019-03-31T12:47:39.941Z,14.38
2019-03-31T12:48:39.922Z,14.92
2019-03-31T12:49:39.916Z,15.73
2019-03-31T12:50:39.902Z,16.39
2019-03-31T12:51:39.913Z,17.23
2019-03-31T12:52:46.697Z,18.23
2019-03-31T12:53:40.871Z,18.33
2019-03-31T12:54:39.860Z,18.67
2019-03-31T12:55:39.846Z,18.88
2019-03-31T12:56:39.848Z,19.07
2019-03-31T12:57:39.824Z,19.16
2019-03-31T12:58:39.825Z,18.88
2019-03-31T12:59:39.801Z,18.82
2019-03-31T13:00:39.794Z,18.63
2019-03-31T13:01:39.789Z,18.64
2019-03-31T13:02:39.788Z,18.67
2019-03-31T13:03:39.757Z,18.68
2019-03-31T13:04:39.758Z,17.37
2019-03-31T13:05:39.737Z,15.37
2019-03-31T13:06:39.748Z,14.87
2019-03-31T13:07:39.715Z,14.79